sensor_id;sensor_type;location;lat;lon;timestamp;P1;durP1;ratioP1;P2;durP2;ratioP2
2966;SDS011;1493;51.496;7.210;2023-05-14T00:01:25;10.57;;;8.07;;
2966;SDS011;1493;51.496;7.210;2023-05-14T00:03:52;9.40;;;8.40;;
2966;SDS011;1493;51.496;7.210;2023-05-14T00:06:19;10.67;;;8.13;;
2966;SDS011;1493;51.496;7.210;2023-05-14T00:08:47;10.23;;;8.67;;
2966;SDS011;1493;51.496;7.210;2023-05-14T00:11:14;10.60;;;8.50;;
2966;SDS011;1493;51.496;7.210;2023-05-14T00:13:41;8.90;;;7.60;;
2966;SDS011;1493;51.496;7.210;2023-05-14T00:16:08;16.03;;;10.67;;
2966;SDS011;1493;51.496;7.210;2023-05-14T00:18:35;9.23;;;8.33;;
2966;SDS011;1493;51.496;7.210;2023-05-14T00:21:02;12.20;;;8.60;;
2966;SDS011;1493;51.496;7.210;2023-05-14T00:23:28;10.63;;;9.40;;
2966;SDS011;1493;51.496;7.210;2023-05-14T00:25:57;11.97;;;10.10;;
2966;SDS011;1493;51.496;7.210;2023-05-14T00:28:23;11.30;;;8.73;;
2966;SDS011;1493;51.496;7.210;2023-05-14T00:30:50;14.37;;;9.80;;
2966;SDS011;1493;51.496;7.210;2023-05-14T00:33:17;10.50;;;9.03;;
2966;SDS011;1493;51.496;7.210;2023-05-14T00:35:44;13.20;;;10.07;;
2966;SDS011;1493;51.496;7.210;2023-05-14T00:38:11;11.20;;;8.97;;
2966;SDS011;1493;51.496;7.210;2023-05-14T00:40:41;9.67;;;8.63;;
2966;SDS011;1493;51.496;7.210;2023-05-14T00:43:11;15.43;;;10.10;;
2966;SDS011;1493;51.496;7.210;2023-05-14T00:45:38;11.20;;;9.53;;
2966;SDS011;1493;51.496;7.210;2023-05-14T00:48:04;15.70;;;9.50;;
2966;SDS011;1493;51.496;7.210;2023-05-14T00:50:32;11.67;;;9.30;;
2966;SDS011;1493;51.496;7.210;2023-05-14T00:52:59;10.80;;;9.23;;
2966;SDS011;1493;51.496;7.210;2023-05-14T00:55:26;15.50;;;11.80;;
2966;SDS011;1493;51.496;7.210;2023-05-14T00:57:55;12.70;;;10.30;;
2966;SDS011;1493;51.496;7.210;2023-05-14T01:00:25;12.33;;;9.50;;
2966;SDS011;1493;51.496;7.210;2023-05-14T01:02:52;12.50;;;11.20;;
2966;SDS011;1493;51.496;7.210;2023-05-14T01:05:19;11.43;;;9.80;;
2966;SDS011;1493;51.496;7.210;2023-05-14T01:07:48;13.30;;;10.53;;
2966;SDS011;1493;51.496;7.210;2023-05-14T01:10:23;14.20;;;10.77;;
2966;SDS011;1493;51.496;7.210;2023-05-14T01:12:55;13.13;;;10.53;;
2966;SDS011;1493;51.496;7.210;2023-05-14T01:15:30;13.23;;;10.10;;
2966;SDS011;1493;51.496;7.210;2023-05-14T01:18:00;15.60;;;10.23;;
2966;SDS011;1493;51.496;7.210;2023-05-14T01:20:29;13.37;;;10.67;;
2966;SDS011;1493;51.496;7.210;2023-05-14T01:22:58;14.03;;;10.33;;
2966;SDS011;1493;51.496;7.210;2023-05-14T01:25:24;18.13;;;10.50;;
2966;SDS011;1493;51.496;7.210;2023-05-14T01:27:52;16.30;;;10.67;;
2966;SDS011;1493;51.496;7.210;2023-05-14T01:30:28;13.07;;;10.00;;
2966;SDS011;1493;51.496;7.210;2023-05-14T01:32:59;15.97;;;10.47;;
2966;SDS011;1493;51.496;7.210;2023-05-14T01:35:28;14.70;;;11.53;;
2966;SDS011;1493;51.496;7.210;2023-05-14T01:37:56;16.13;;;10.77;;
2966;SDS011;1493;51.496;7.210;2023-05-14T01:40:26;12.90;;;10.37;;
2966;SDS011;1493;51.496;7.210;2023-05-14T01:42:53;15.03;;;11.30;;
2966;SDS011;1493;51.496;7.210;2023-05-14T01:45:20;12.60;;;11.27;;
2966;SDS011;1493;51.496;7.210;2023-05-14T01:47:48;12.80;;;11.27;;
2966;SDS011;1493;51.496;7.210;2023-05-14T01:50:15;14.07;;;12.10;;
2966;SDS011;1493;51.496;7.210;2023-05-14T01:52:42;13.03;;;11.17;;
2966;SDS011;1493;51.496;7.210;2023-05-14T01:55:10;12.93;;;10.70;;
2966;SDS011;1493;51.496;7.210;2023-05-14T01:57:37;13.50;;;11.80;;
2966;SDS011;1493;51.496;7.210;2023-05-14T02:00:04;13.87;;;12.37;;
2966;SDS011;1493;51.496;7.210;2023-05-14T02:02:32;13.30;;;10.67;;
2966;SDS011;1493;51.496;7.210;2023-05-14T02:04:59;13.27;;;10.83;;
2966;SDS011;1493;51.496;7.210;2023-05-14T02:07:25;15.40;;;11.03;;
2966;SDS011;1493;51.496;7.210;2023-05-14T02:09:52;16.20;;;11.30;;
2966;SDS011;1493;51.496;7.210;2023-05-14T02:12:20;14.43;;;10.30;;
2966;SDS011;1493;51.496;7.210;2023-05-14T02:14:48;12.80;;;10.90;;
2966;SDS011;1493;51.496;7.210;2023-05-14T02:17:16;11.47;;;9.90;;
2966;SDS011;1493;51.496;7.210;2023-05-14T02:19:43;15.37;;;12.10;;
2966;SDS011;1493;51.496;7.210;2023-05-14T02:22:10;13.13;;;10.30;;
2966;SDS011;1493;51.496;7.210;2023-05-14T02:24:37;15.77;;;12.37;;
2966;SDS011;1493;51.496;7.210;2023-05-14T02:27:04;15.47;;;11.23;;
2966;SDS011;1493;51.496;7.210;2023-05-14T02:29:32;12.90;;;11.33;;
2966;SDS011;1493;51.496;7.210;2023-05-14T02:31:59;12.73;;;11.40;;
2966;SDS011;1493;51.496;7.210;2023-05-14T02:34:26;12.47;;;10.90;;
2966;SDS011;1493;51.496;7.210;2023-05-14T02:36:52;15.73;;;13.13;;
2966;SDS011;1493;51.496;7.210;2023-05-14T02:39:19;12.93;;;11.53;;
2966;SDS011;1493;51.496;7.210;2023-05-14T02:41:46;12.37;;;10.77;;
2966;SDS011;1493;51.496;7.210;2023-05-14T02:44:13;14.20;;;11.50;;
2966;SDS011;1493;51.496;7.210;2023-05-14T02:46:41;13.67;;;11.70;;
2966;SDS011;1493;51.496;7.210;2023-05-14T02:49:08;13.57;;;12.17;;
2966;SDS011;1493;51.496;7.210;2023-05-14T02:51:35;13.20;;;10.60;;
2966;SDS011;1493;51.496;7.210;2023-05-14T02:54:02;14.70;;;11.47;;
2966;SDS011;1493;51.496;7.210;2023-05-14T02:56:28;13.07;;;11.77;;
2966;SDS011;1493;51.496;7.210;2023-05-14T02:58:55;16.50;;;11.33;;
2966;SDS011;1493;51.496;7.210;2023-05-14T03:01:22;12.83;;;11.13;;
2966;SDS011;1493;51.496;7.210;2023-05-14T03:03:50;12.67;;;11.10;;
2966;SDS011;1493;51.496;7.210;2023-05-14T03:06:17;14.17;;;12.33;;
2966;SDS011;1493;51.496;7.210;2023-05-14T03:08:44;12.23;;;10.50;;
2966;SDS011;1493;51.496;7.210;2023-05-14T03:11:10;14.90;;;11.20;;
2966;SDS011;1493;51.496;7.210;2023-05-14T03:13:37;16.40;;;12.77;;
2966;SDS011;1493;51.496;7.210;2023-05-14T03:16:04;17.67;;;11.03;;
2966;SDS011;1493;51.496;7.210;2023-05-14T03:18:31;12.40;;;11.20;;
2966;SDS011;1493;51.496;7.210;2023-05-14T03:21:01;15.47;;;11.17;;
2966;SDS011;1493;51.496;7.210;2023-05-14T03:23:28;11.37;;;10.07;;
2966;SDS011;1493;51.496;7.210;2023-05-14T03:25:55;14.33;;;11.33;;
2966;SDS011;1493;51.496;7.210;2023-05-14T03:28:22;14.67;;;12.53;;
2966;SDS011;1493;51.496;7.210;2023-05-14T03:30:49;13.37;;;11.13;;
2966;SDS011;1493;51.496;7.210;2023-05-14T03:33:16;13.07;;;11.67;;
2966;SDS011;1493;51.496;7.210;2023-05-14T03:35:43;14.97;;;10.67;;
2966;SDS011;1493;51.496;7.210;2023-05-14T03:38:11;13.60;;;11.47;;
2966;SDS011;1493;51.496;7.210;2023-05-14T03:40:38;14.83;;;12.63;;
2966;SDS011;1493;51.496;7.210;2023-05-14T03:43:05;14.07;;;12.60;;
2966;SDS011;1493;51.496;7.210;2023-05-14T03:45:35;13.63;;;12.17;;
2966;SDS011;1493;51.496;7.210;2023-05-14T03:48:02;13.97;;;11.53;;
2966;SDS011;1493;51.496;7.210;2023-05-14T03:50:29;16.97;;;11.67;;
2966;SDS011;1493;51.496;7.210;2023-05-14T03:52:56;12.90;;;10.80;;
2966;SDS011;1493;51.496;7.210;2023-05-14T03:55:24;13.03;;;11.63;;
2966;SDS011;1493;51.496;7.210;2023-05-14T03:57:51;15.53;;;13.10;;
2966;SDS011;1493;51.496;7.210;2023-05-14T04:00:18;12.80;;;10.87;;
2966;SDS011;1493;51.496;7.210;2023-05-14T04:02:45;13.07;;;11.87;;
2966;SDS011;1493;51.496;7.210;2023-05-14T04:05:11;13.40;;;12.00;;
2966;SDS011;1493;51.496;7.210;2023-05-14T04:07:38;14.60;;;11.43;;
2966;SDS011;1493;51.496;7.210;2023-05-14T04:10:05;18.30;;;12.47;;
2966;SDS011;1493;51.496;7.210;2023-05-14T04:12:34;13.57;;;12.17;;
2966;SDS011;1493;51.496;7.210;2023-05-14T04:15:01;14.37;;;12.10;;
2966;SDS011;1493;51.496;7.210;2023-05-14T04:17:28;14.50;;;12.60;;
2966;SDS011;1493;51.496;7.210;2023-05-14T04:19:55;15.70;;;11.47;;
2966;SDS011;1493;51.496;7.210;2023-05-14T04:22:22;13.50;;;12.10;;
2966;SDS011;1493;51.496;7.210;2023-05-14T04:24:49;12.83;;;11.57;;
2966;SDS011;1493;51.496;7.210;2023-05-14T04:27:18;18.93;;;11.20;;
2966;SDS011;1493;51.496;7.210;2023-05-14T04:29:47;18.83;;;12.00;;
2966;SDS011;1493;51.496;7.210;2023-05-14T04:32:14;15.27;;;12.40;;
2966;SDS011;1493;51.496;7.210;2023-05-14T04:34:41;13.50;;;12.07;;
2966;SDS011;1493;51.496;7.210;2023-05-14T04:37:08;15.43;;;13.30;;
2966;SDS011;1493;51.496;7.210;2023-05-14T04:39:35;13.40;;;12.10;;
2966;SDS011;1493;51.496;7.210;2023-05-14T04:42:03;13.83;;;12.30;;
2966;SDS011;1493;51.496;7.210;2023-05-14T04:44:30;18.33;;;12.70;;
2966;SDS011;1493;51.496;7.210;2023-05-14T04:46:59;13.67;;;12.23;;
2966;SDS011;1493;51.496;7.210;2023-05-14T04:49:27;15.80;;;13.57;;
2966;SDS011;1493;51.496;7.210;2023-05-14T04:51:54;15.17;;;13.30;;
2966;SDS011;1493;51.496;7.210;2023-05-14T04:54:21;15.10;;;13.60;;
2966;SDS011;1493;51.496;7.210;2023-05-14T04:56:48;17.93;;;13.03;;
2966;SDS011;1493;51.496;7.210;2023-05-14T04:59:15;15.00;;;12.80;;
2966;SDS011;1493;51.496;7.210;2023-05-14T05:01:43;17.53;;;13.53;;
2966;SDS011;1493;51.496;7.210;2023-05-14T05:04:11;14.17;;;12.67;;
2966;SDS011;1493;51.496;7.210;2023-05-14T05:06:38;13.73;;;11.43;;
2966;SDS011;1493;51.496;7.210;2023-05-14T05:09:05;14.27;;;12.73;;
2966;SDS011;1493;51.496;7.210;2023-05-14T05:11:32;14.70;;;13.30;;
2966;SDS011;1493;51.496;7.210;2023-05-14T05:13:59;15.67;;;14.07;;
2966;SDS011;1493;51.496;7.210;2023-05-14T05:16:26;12.70;;;11.47;;
2966;SDS011;1493;51.496;7.210;2023-05-14T05:18:53;12.70;;;11.40;;
2966;SDS011;1493;51.496;7.210;2023-05-14T05:21:21;16.27;;;12.10;;
2966;SDS011;1493;51.496;7.210;2023-05-14T05:23:48;12.30;;;11.00;;
2966;SDS011;1493;51.496;7.210;2023-05-14T05:26:15;11.70;;;10.13;;
2966;SDS011;1493;51.496;7.210;2023-05-14T05:28:42;14.37;;;11.73;;
2966;SDS011;1493;51.496;7.210;2023-05-14T05:31:08;12.60;;;11.30;;
2966;SDS011;1493;51.496;7.210;2023-05-14T05:33:35;12.20;;;11.00;;
2966;SDS011;1493;51.496;7.210;2023-05-14T05:36:02;17.53;;;11.80;;
2966;SDS011;1493;51.496;7.210;2023-05-14T05:38:31;17.63;;;11.77;;
2966;SDS011;1493;51.496;7.210;2023-05-14T05:40:57;14.17;;;12.67;;
2966;SDS011;1493;51.496;7.210;2023-05-14T05:43:24;14.50;;;11.83;;
2966;SDS011;1493;51.496;7.210;2023-05-14T05:45:52;19.13;;;13.77;;
2966;SDS011;1493;51.496;7.210;2023-05-14T05:48:19;15.30;;;13.67;;
2966;SDS011;1493;51.496;7.210;2023-05-14T05:50:49;15.63;;;13.97;;
2966;SDS011;1493;51.496;7.210;2023-05-14T05:53:15;16.67;;;15.03;;
2966;SDS011;1493;51.496;7.210;2023-05-14T05:55:47;14.97;;;13.60;;
2966;SDS011;1493;51.496;7.210;2023-05-14T05:58:15;17.70;;;14.17;;
2966;SDS011;1493;51.496;7.210;2023-05-14T06:00:42;15.80;;;12.03;;
2966;SDS011;1493;51.496;7.210;2023-05-14T06:03:09;15.23;;;13.43;;
2966;SDS011;1493;51.496;7.210;2023-05-14T06:05:36;13.93;;;12.53;;
2966;SDS011;1493;51.496;7.210;2023-05-14T06:08:03;13.53;;;12.07;;
2966;SDS011;1493;51.496;7.210;2023-05-14T06:10:30;15.17;;;11.97;;
2966;SDS011;1493;51.496;7.210;2023-05-14T06:12:59;18.80;;;12.23;;
2966;SDS011;1493;51.496;7.210;2023-05-14T06:15:26;12.87;;;11.50;;
2966;SDS011;1493;51.496;7.210;2023-05-14T06:17:53;11.93;;;10.70;;
2966;SDS011;1493;51.496;7.210;2023-05-14T06:20:20;11.63;;;10.43;;
2966;SDS011;1493;51.496;7.210;2023-05-14T06:22:46;11.37;;;9.53;;
2966;SDS011;1493;51.496;7.210;2023-05-14T06:25:13;12.07;;;10.67;;
2966;SDS011;1493;51.496;7.210;2023-05-14T06:27:43;12.20;;;9.83;;
2966;SDS011;1493;51.496;7.210;2023-05-14T06:30:12;11.60;;;10.40;;
2966;SDS011;1493;51.496;7.210;2023-05-14T06:32:39;12.83;;;9.53;;
2966;SDS011;1493;51.496;7.210;2023-05-14T06:35:06;9.97;;;8.97;;
2966;SDS011;1493;51.496;7.210;2023-05-14T06:37:34;10.30;;;9.30;;
2966;SDS011;1493;51.496;7.210;2023-05-14T06:40:00;8.70;;;7.70;;
2966;SDS011;1493;51.496;7.210;2023-05-14T06:42:27;11.67;;;8.00;;
2966;SDS011;1493;51.496;7.210;2023-05-14T06:44:54;8.57;;;7.63;;
2966;SDS011;1493;51.496;7.210;2023-05-14T06:47:22;7.77;;;6.97;;
2966;SDS011;1493;51.496;7.210;2023-05-14T06:49:49;9.70;;;8.27;;
2966;SDS011;1493;51.496;7.210;2023-05-14T06:52:16;10.03;;;7.93;;
2966;SDS011;1493;51.496;7.210;2023-05-14T06:54:43;8.57;;;6.00;;
2966;SDS011;1493;51.496;7.210;2023-05-14T06:57:10;7.07;;;6.37;;
2966;SDS011;1493;51.496;7.210;2023-05-14T06:59:37;9.33;;;5.80;;
2966;SDS011;1493;51.496;7.210;2023-05-14T07:02:03;5.70;;;5.20;;
2966;SDS011;1493;51.496;7.210;2023-05-14T07:04:32;6.70;;;5.50;;
2966;SDS011;1493;51.496;7.210;2023-05-14T07:06:58;6.20;;;5.37;;
2966;SDS011;1493;51.496;7.210;2023-05-14T07:09:25;6.23;;;5.40;;
2966;SDS011;1493;51.496;7.210;2023-05-14T07:11:52;6.23;;;4.97;;
2966;SDS011;1493;51.496;7.210;2023-05-14T07:14:19;5.87;;;5.27;;
2966;SDS011;1493;51.496;7.210;2023-05-14T07:16:45;5.10;;;4.53;;
2966;SDS011;1493;51.496;7.210;2023-05-14T07:19:12;5.77;;;5.10;;
2966;SDS011;1493;51.496;7.210;2023-05-14T07:21:40;4.73;;;4.23;;
2966;SDS011;1493;51.496;7.210;2023-05-14T07:24:07;6.03;;;4.40;;
2966;SDS011;1493;51.496;7.210;2023-05-14T07:26:34;4.80;;;3.93;;
2966;SDS011;1493;51.496;7.210;2023-05-14T07:29:01;5.60;;;4.50;;
2966;SDS011;1493;51.496;7.210;2023-05-14T07:31:28;5.83;;;4.50;;
2966;SDS011;1493;51.496;7.210;2023-05-14T07:33:55;4.50;;;3.60;;
2966;SDS011;1493;51.496;7.210;2023-05-14T07:36:21;4.80;;;3.60;;
2966;SDS011;1493;51.496;7.210;2023-05-14T07:38:49;5.63;;;3.40;;
2966;SDS011;1493;51.496;7.210;2023-05-14T07:41:16;3.50;;;3.20;;
2966;SDS011;1493;51.496;7.210;2023-05-14T07:43:43;4.27;;;3.60;;
2966;SDS011;1493;51.496;7.210;2023-05-14T07:46:10;4.43;;;3.40;;
2966;SDS011;1493;51.496;7.210;2023-05-14T07:48:37;4.53;;;2.90;;
2966;SDS011;1493;51.496;7.210;2023-05-14T07:51:04;4.20;;;3.47;;
2966;SDS011;1493;51.496;7.210;2023-05-14T07:53:31;4.00;;;3.10;;
2966;SDS011;1493;51.496;7.210;2023-05-14T07:55:59;4.40;;;3.00;;
2966;SDS011;1493;51.496;7.210;2023-05-14T07:58:26;3.70;;;2.83;;
2966;SDS011;1493;51.496;7.210;2023-05-14T08:00:53;3.83;;;2.87;;
2966;SDS011;1493;51.496;7.210;2023-05-14T08:03:20;4.87;;;2.40;;
2966;SDS011;1493;51.496;7.210;2023-05-14T08:05:47;4.43;;;2.80;;
2966;SDS011;1493;51.496;7.210;2023-05-14T08:08:14;4.90;;;3.17;;
2966;SDS011;1493;51.496;7.210;2023-05-14T08:10:41;4.73;;;2.93;;
2966;SDS011;1493;51.496;7.210;2023-05-14T08:13:09;5.73;;;2.63;;
2966;SDS011;1493;51.496;7.210;2023-05-14T08:15:36;3.20;;;2.47;;
2966;SDS011;1493;51.496;7.210;2023-05-14T08:18:02;4.37;;;2.50;;
2966;SDS011;1493;51.496;7.210;2023-05-14T08:20:29;4.47;;;2.50;;
2966;SDS011;1493;51.496;7.210;2023-05-14T08:22:56;5.50;;;2.20;;
2966;SDS011;1493;51.496;7.210;2023-05-14T08:25:23;4.73;;;2.37;;
2966;SDS011;1493;51.496;7.210;2023-05-14T08:27:50;3.60;;;2.07;;
2966;SDS011;1493;51.496;7.210;2023-05-14T08:30:19;2.83;;;1.83;;
2966;SDS011;1493;51.496;7.210;2023-05-14T08:32:46;2.77;;;2.03;;
2966;SDS011;1493;51.496;7.210;2023-05-14T08:35:13;3.63;;;1.80;;
2966;SDS011;1493;51.496;7.210;2023-05-14T08:37:40;3.00;;;1.63;;
2966;SDS011;1493;51.496;7.210;2023-05-14T08:40:07;4.10;;;2.23;;
2966;SDS011;1493;51.496;7.210;2023-05-14T08:42:34;2.40;;;1.70;;
2966;SDS011;1493;51.496;7.210;2023-05-14T08:45:06;3.10;;;1.90;;
2966;SDS011;1493;51.496;7.210;2023-05-14T08:47:38;2.90;;;1.50;;
2966;SDS011;1493;51.496;7.210;2023-05-14T08:50:05;4.27;;;1.80;;
2966;SDS011;1493;51.496;7.210;2023-05-14T08:52:33;2.90;;;1.90;;
2966;SDS011;1493;51.496;7.210;2023-05-14T08:55:01;3.07;;;1.77;;
2966;SDS011;1493;51.496;7.210;2023-05-14T08:57:30;3.63;;;2.00;;
2966;SDS011;1493;51.496;7.210;2023-05-14T08:59:58;2.63;;;1.80;;
2966;SDS011;1493;51.496;7.210;2023-05-14T09:02:27;2.87;;;1.70;;
2966;SDS011;1493;51.496;7.210;2023-05-14T09:04:57;2.97;;;1.80;;
2966;SDS011;1493;51.496;7.210;2023-05-14T09:07:24;2.40;;;1.60;;
2966;SDS011;1493;51.496;7.210;2023-05-14T09:09:52;3.63;;;1.50;;
2966;SDS011;1493;51.496;7.210;2023-05-14T09:12:19;2.80;;;1.73;;
2966;SDS011;1493;51.496;7.210;2023-05-14T09:14:47;2.80;;;1.53;;
2966;SDS011;1493;51.496;7.210;2023-05-14T09:17:14;4.90;;;1.77;;
2966;SDS011;1493;51.496;7.210;2023-05-14T09:19:42;2.47;;;1.70;;
2966;SDS011;1493;51.496;7.210;2023-05-14T09:22:13;3.00;;;2.10;;
2966;SDS011;1493;51.496;7.210;2023-05-14T09:24:41;2.30;;;1.53;;
2966;SDS011;1493;51.496;7.210;2023-05-14T09:27:08;5.50;;;2.07;;
2966;SDS011;1493;51.496;7.210;2023-05-14T09:29:40;2.70;;;1.50;;
2966;SDS011;1493;51.496;7.210;2023-05-14T09:32:07;2.70;;;1.60;;
2966;SDS011;1493;51.496;7.210;2023-05-14T09:34:34;3.40;;;1.80;;
2966;SDS011;1493;51.496;7.210;2023-05-14T09:37:02;3.37;;;1.83;;
2966;SDS011;1493;51.496;7.210;2023-05-14T09:39:32;2.60;;;1.70;;
2966;SDS011;1493;51.496;7.210;2023-05-14T09:42:00;2.87;;;1.87;;
2966;SDS011;1493;51.496;7.210;2023-05-14T09:44:27;3.23;;;1.60;;
2966;SDS011;1493;51.496;7.210;2023-05-14T09:49:24;2.87;;;1.77;;
2966;SDS011;1493;51.496;7.210;2023-05-14T09:51:51;3.13;;;1.97;;
2966;SDS011;1493;51.496;7.210;2023-05-14T09:54:18;2.70;;;1.73;;
2966;SDS011;1493;51.496;7.210;2023-05-14T09:56:46;2.47;;;1.60;;
2966;SDS011;1493;51.496;7.210;2023-05-14T09:59:13;2.57;;;1.83;;
2966;SDS011;1493;51.496;7.210;2023-05-14T10:01:40;3.13;;;1.70;;
2966;SDS011;1493;51.496;7.210;2023-05-14T10:04:08;2.77;;;1.63;;
2966;SDS011;1493;51.496;7.210;2023-05-14T10:06:36;3.33;;;1.90;;
2966;SDS011;1493;51.496;7.210;2023-05-14T10:09:08;2.83;;;1.70;;
2966;SDS011;1493;51.496;7.210;2023-05-14T10:11:38;4.10;;;1.90;;
2966;SDS011;1493;51.496;7.210;2023-05-14T10:14:10;6.00;;;2.03;;
2966;SDS011;1493;51.496;7.210;2023-05-14T10:16:43;3.63;;;1.77;;
2966;SDS011;1493;51.496;7.210;2023-05-14T10:19:13;4.03;;;1.40;;
2966;SDS011;1493;51.496;7.210;2023-05-14T10:21:43;2.50;;;1.40;;
2966;SDS011;1493;51.496;7.210;2023-05-14T10:24:12;8.87;;;1.70;;
2966;SDS011;1493;51.496;7.210;2023-05-14T10:26:40;3.53;;;1.80;;
2966;SDS011;1493;51.496;7.210;2023-05-14T10:29:09;4.57;;;1.97;;
2966;SDS011;1493;51.496;7.210;2023-05-14T10:31:46;3.10;;;1.63;;
2966;SDS011;1493;51.496;7.210;2023-05-14T10:34:30;3.43;;;1.77;;
2966;SDS011;1493;51.496;7.210;2023-05-14T10:36:58;2.83;;;1.50;;
2966;SDS011;1493;51.496;7.210;2023-05-14T10:39:38;3.27;;;2.10;;
2966;SDS011;1493;51.496;7.210;2023-05-14T10:42:06;2.30;;;1.63;;
2966;SDS011;1493;51.496;7.210;2023-05-14T10:44:37;3.07;;;1.73;;
2966;SDS011;1493;51.496;7.210;2023-05-14T10:47:11;2.80;;;2.03;;
2966;SDS011;1493;51.496;7.210;2023-05-14T10:49:38;11.20;;;3.20;;
2966;SDS011;1493;51.496;7.210;2023-05-14T10:52:07;2.90;;;1.87;;
2966;SDS011;1493;51.496;7.210;2023-05-14T10:54:34;2.70;;;1.77;;
2966;SDS011;1493;51.496;7.210;2023-05-14T10:57:02;3.40;;;1.90;;
2966;SDS011;1493;51.496;7.210;2023-05-14T10:59:28;3.63;;;2.47;;
2966;SDS011;1493;51.496;7.210;2023-05-14T11:01:59;2.97;;;1.97;;
2966;SDS011;1493;51.496;7.210;2023-05-14T11:04:30;2.60;;;2.13;;
2966;SDS011;1493;51.496;7.210;2023-05-14T11:06:57;2.87;;;1.50;;
2966;SDS011;1493;51.496;7.210;2023-05-14T11:09:25;3.03;;;1.90;;
2966;SDS011;1493;51.496;7.210;2023-05-14T11:11:53;3.03;;;2.17;;
2966;SDS011;1493;51.496;7.210;2023-05-14T11:14:19;2.50;;;1.60;;
2966;SDS011;1493;51.496;7.210;2023-05-14T11:16:47;2.87;;;2.17;;
2966;SDS011;1493;51.496;7.210;2023-05-14T11:19:16;2.93;;;1.80;;
2966;SDS011;1493;51.496;7.210;2023-05-14T11:21:47;2.93;;;1.97;;
2966;SDS011;1493;51.496;7.210;2023-05-14T11:24:13;2.20;;;1.50;;
2966;SDS011;1493;51.496;7.210;2023-05-14T11:26:40;3.00;;;2.20;;
2966;SDS011;1493;51.496;7.210;2023-05-14T11:29:07;2.97;;;1.80;;
2966;SDS011;1493;51.496;7.210;2023-05-14T11:31:35;2.70;;;2.00;;
2966;SDS011;1493;51.496;7.210;2023-05-14T11:34:01;3.90;;;2.00;;
2966;SDS011;1493;51.496;7.210;2023-05-14T11:36:32;4.90;;;2.10;;
2966;SDS011;1493;51.496;7.210;2023-05-14T11:39:01;3.20;;;1.97;;
2966;SDS011;1493;51.496;7.210;2023-05-14T11:41:28;3.70;;;1.80;;
2966;SDS011;1493;51.496;7.210;2023-05-14T11:43:55;2.60;;;1.70;;
2966;SDS011;1493;51.496;7.210;2023-05-14T11:46:23;2.27;;;1.60;;
2966;SDS011;1493;51.496;7.210;2023-05-14T11:48:50;2.57;;;2.00;;
2966;SDS011;1493;51.496;7.210;2023-05-14T11:51:17;2.63;;;1.83;;
2966;SDS011;1493;51.496;7.210;2023-05-14T11:53:45;3.03;;;2.03;;
2966;SDS011;1493;51.496;7.210;2023-05-14T11:56:12;3.03;;;2.00;;
2966;SDS011;1493;51.496;7.210;2023-05-14T11:58:38;2.90;;;1.70;;
2966;SDS011;1493;51.496;7.210;2023-05-14T12:01:05;3.17;;;1.90;;
2966;SDS011;1493;51.496;7.210;2023-05-14T12:03:38;3.00;;;2.00;;
2966;SDS011;1493;51.496;7.210;2023-05-14T12:06:05;3.47;;;2.27;;
2966;SDS011;1493;51.496;7.210;2023-05-14T12:08:32;5.30;;;2.17;;
2966;SDS011;1493;51.496;7.210;2023-05-14T12:11:01;3.13;;;2.17;;
2966;SDS011;1493;51.496;7.210;2023-05-14T12:13:27;4.03;;;2.20;;
2966;SDS011;1493;51.496;7.210;2023-05-14T12:15:56;2.90;;;1.77;;
2966;SDS011;1493;51.496;7.210;2023-05-14T12:18:24;3.20;;;2.40;;
2966;SDS011;1493;51.496;7.210;2023-05-14T12:20:53;4.40;;;1.83;;
2966;SDS011;1493;51.496;7.210;2023-05-14T12:23:24;3.50;;;2.10;;
2966;SDS011;1493;51.496;7.210;2023-05-14T12:25:51;4.30;;;2.20;;
2966;SDS011;1493;51.496;7.210;2023-05-14T12:28:21;3.00;;;1.80;;
2966;SDS011;1493;51.496;7.210;2023-05-14T12:30:54;5.97;;;1.90;;
2966;SDS011;1493;51.496;7.210;2023-05-14T12:33:21;2.93;;;1.80;;
2966;SDS011;1493;51.496;7.210;2023-05-14T12:35:50;4.23;;;1.60;;
2966;SDS011;1493;51.496;7.210;2023-05-14T12:38:17;4.50;;;2.10;;
2966;SDS011;1493;51.496;7.210;2023-05-14T12:40:44;3.07;;;1.80;;
2966;SDS011;1493;51.496;7.210;2023-05-14T12:43:11;2.57;;;1.83;;
2966;SDS011;1493;51.496;7.210;2023-05-14T12:45:39;3.47;;;2.20;;
2966;SDS011;1493;51.496;7.210;2023-05-14T12:48:06;4.13;;;1.60;;
2966;SDS011;1493;51.496;7.210;2023-05-14T12:50:33;3.03;;;1.90;;
2966;SDS011;1493;51.496;7.210;2023-05-14T12:53:00;5.80;;;1.80;;
2966;SDS011;1493;51.496;7.210;2023-05-14T12:55:27;2.60;;;1.63;;
2966;SDS011;1493;51.496;7.210;2023-05-14T12:57:53;2.53;;;1.60;;
2966;SDS011;1493;51.496;7.210;2023-05-14T13:00:20;2.23;;;1.40;;
2966;SDS011;1493;51.496;7.210;2023-05-14T13:02:48;2.90;;;1.70;;
2966;SDS011;1493;51.496;7.210;2023-05-14T13:05:15;2.30;;;1.60;;
2966;SDS011;1493;51.496;7.210;2023-05-14T13:07:42;2.33;;;1.37;;
2966;SDS011;1493;51.496;7.210;2023-05-14T13:10:09;3.40;;;1.47;;
2966;SDS011;1493;51.496;7.210;2023-05-14T13:12:36;2.50;;;1.30;;
2966;SDS011;1493;51.496;7.210;2023-05-14T13:15:04;2.50;;;1.77;;
2966;SDS011;1493;51.496;7.210;2023-05-14T13:17:31;2.33;;;1.53;;
2966;SDS011;1493;51.496;7.210;2023-05-14T13:19:59;5.13;;;1.40;;
2966;SDS011;1493;51.496;7.210;2023-05-14T13:22:26;7.63;;;1.40;;
2966;SDS011;1493;51.496;7.210;2023-05-14T13:24:53;2.50;;;1.40;;
2966;SDS011;1493;51.496;7.210;2023-05-14T13:27:19;2.43;;;1.40;;
2966;SDS011;1493;51.496;7.210;2023-05-14T13:29:46;2.30;;;1.67;;
2966;SDS011;1493;51.496;7.210;2023-05-14T13:32:13;2.87;;;1.37;;
2966;SDS011;1493;51.496;7.210;2023-05-14T13:34:40;2.43;;;1.23;;
2966;SDS011;1493;51.496;7.210;2023-05-14T13:37:09;2.27;;;1.47;;
2966;SDS011;1493;51.496;7.210;2023-05-14T13:39:36;2.60;;;1.50;;
2966;SDS011;1493;51.496;7.210;2023-05-14T13:42:03;3.53;;;1.40;;
2966;SDS011;1493;51.496;7.210;2023-05-14T13:44:30;2.80;;;1.50;;
2966;SDS011;1493;51.496;7.210;2023-05-14T13:46:57;2.10;;;1.23;;
2966;SDS011;1493;51.496;7.210;2023-05-14T13:49:24;3.53;;;1.60;;
2966;SDS011;1493;51.496;7.210;2023-05-14T13:51:51;2.00;;;1.20;;
2966;SDS011;1493;51.496;7.210;2023-05-14T13:54:19;2.73;;;1.30;;
2966;SDS011;1493;51.496;7.210;2023-05-14T13:56:46;3.60;;;1.47;;
2966;SDS011;1493;51.496;7.210;2023-05-14T13:59:13;6.20;;;2.03;;
2966;SDS011;1493;51.496;7.210;2023-05-14T14:01:39;2.20;;;1.40;;
2966;SDS011;1493;51.496;7.210;2023-05-14T14:04:08;2.80;;;1.60;;
2966;SDS011;1493;51.496;7.210;2023-05-14T14:06:35;3.43;;;1.57;;
2966;SDS011;1493;51.496;7.210;2023-05-14T14:09:02;2.10;;;1.30;;
2966;SDS011;1493;51.496;7.210;2023-05-14T14:11:30;1.90;;;1.03;;
2966;SDS011;1493;51.496;7.210;2023-05-14T14:13:57;2.60;;;1.40;;
2966;SDS011;1493;51.496;7.210;2023-05-14T14:16:23;4.70;;;1.30;;
2966;SDS011;1493;51.496;7.210;2023-05-14T14:18:50;2.27;;;1.40;;
2966;SDS011;1493;51.496;7.210;2023-05-14T14:21:17;3.53;;;2.17;;
2966;SDS011;1493;51.496;7.210;2023-05-14T14:23:45;2.20;;;1.30;;
2966;SDS011;1493;51.496;7.210;2023-05-14T14:26:12;2.50;;;1.50;;
2966;SDS011;1493;51.496;7.210;2023-05-14T14:28:40;2.90;;;1.40;;
2966;SDS011;1493;51.496;7.210;2023-05-14T14:31:07;2.27;;;1.20;;
2966;SDS011;1493;51.496;7.210;2023-05-14T14:33:34;2.30;;;1.50;;
2966;SDS011;1493;51.496;7.210;2023-05-14T14:36:00;2.50;;;1.40;;
2966;SDS011;1493;51.496;7.210;2023-05-14T14:38:27;3.10;;;1.50;;
2966;SDS011;1493;51.496;7.210;2023-05-14T14:40:54;2.90;;;1.63;;
2966;SDS011;1493;51.496;7.210;2023-05-14T14:43:22;2.27;;;1.30;;
2966;SDS011;1493;51.496;7.210;2023-05-14T14:45:50;2.33;;;1.30;;
2966;SDS011;1493;51.496;7.210;2023-05-14T14:48:26;2.40;;;1.43;;
2966;SDS011;1493;51.496;7.210;2023-05-14T14:50:58;2.23;;;1.37;;
2966;SDS011;1493;51.496;7.210;2023-05-14T14:53:25;2.20;;;1.30;;
2966;SDS011;1493;51.496;7.210;2023-05-14T14:55:52;2.23;;;1.40;;
2966;SDS011;1493;51.496;7.210;2023-05-14T14:58:19;2.93;;;1.40;;
2966;SDS011;1493;51.496;7.210;2023-05-14T15:00:46;4.60;;;1.40;;
2966;SDS011;1493;51.496;7.210;2023-05-14T15:03:16;3.50;;;1.57;;
2966;SDS011;1493;51.496;7.210;2023-05-14T15:05:43;2.00;;;1.30;;
2966;SDS011;1493;51.496;7.210;2023-05-14T15:08:10;2.80;;;1.47;;
2966;SDS011;1493;51.496;7.210;2023-05-14T15:10:37;2.10;;;1.20;;